CPX419 Details

Departure: Seattle-Tacoma International Airport (KSEA)
Arrival: Chicago/Rockford International Airport (KRFD) at N/A
Route: NORMY J12 EPH HLN DPR J16 FSD DBQ
Notes:


Current Weather Information
KSEA 230753Z 04006KT 10SM FEW027 10/07 A3045 RMK AO2 SLP319 T01000067 401500094 $
KRFD 230754Z 22008KT 10SM CLR 06/M01 A2983 RMK AO2 SLP106 T00561006